createdAt,value
2019-05-10T19:58:09.242Z,91.80
2019-05-10T20:03:16.650Z,91.10
2019-05-10T20:08:24.088Z,91.90
2019-05-10T20:13:31.414Z,92.30
2019-05-10T20:18:38.786Z,92.50
2019-05-10T20:23:46.085Z,92.50
2019-05-10T20:28:53.500Z,93.20
2019-05-10T20:34:00.824Z,92.80
2019-05-10T20:39:09.635Z,93.60
2019-05-10T20:44:18.304Z,93.60
2019-05-10T20:49:26.726Z,93.60
2019-05-10T20:54:34.232Z,91.80
2019-05-10T20:59:41.311Z,91.60
2019-05-10T21:04:48.645Z,91.70
2019-05-10T21:09:55.922Z,91.90
2019-05-10T21:15:03.468Z,92.20
2019-05-10T21:20:11.263Z,92.30
2019-05-10T21:25:18.775Z,92.40
2019-05-10T21:30:26.376Z,92.50
2019-05-10T21:35:33.747Z,92.70
2019-05-10T21:40:41.095Z,92.70
2019-05-10T21:45:48.348Z,92.20
2019-05-10T21:50:55.743Z,92.20
2019-05-10T21:56:03.156Z,92.30
2019-05-10T22:01:10.380Z,92.10
2019-05-10T22:06:17.968Z,92.50
2019-05-10T22:11:25.476Z,92.60
2019-05-10T22:16:33.187Z,92.80
2019-05-10T22:21:40.526Z,92.80
2019-05-10T22:26:47.836Z,92.90
2019-05-10T22:31:55.205Z,93.30
2019-05-10T22:37:02.655Z,93.00
2019-05-10T22:42:09.939Z,93.00
2019-05-10T22:47:17.433Z,93.10
2019-05-10T22:52:24.715Z,93.10
2019-05-10T22:57:32.160Z,93.10
2019-05-10T23:02:39.565Z,93.10
2019-05-10T23:07:46.878Z,93.20
2019-05-10T23:12:54.289Z,93.20
2019-05-10T23:18:01.560Z,93.30
2019-05-10T23:23:08.871Z,93.30
2019-05-10T23:28:16.159Z,93.30
2019-05-10T23:33:23.464Z,93.40
2019-05-10T23:38:30.879Z,93.30
2019-05-10T23:43:38.189Z,93.40
2019-05-10T23:48:45.394Z,93.40
2019-05-10T23:53:52.648Z,93.60
2019-05-10T23:59:00.141Z,93.20
